createdAt,value
2019-01-29T00:01:28.700Z,1.29
2019-01-29T00:04:01.958Z,1.23
2019-01-29T00:06:34.343Z,1.26
2019-01-29T00:09:12.168Z,1.31
2019-01-29T00:11:44.454Z,1.33
2019-01-29T00:14:16.570Z,1.36
2019-01-29T00:16:48.747Z,1.39
2019-01-29T00:19:20.854Z,1.27
2019-01-29T00:21:52.934Z,1.33
2019-01-29T00:24:25.198Z,1.39
2019-01-29T00:26:57.202Z,1.41
2019-01-29T00:29:29.431Z,1.45
2019-01-29T00:32:01.474Z,1.42
2019-01-29T00:34:33.523Z,1.45
2019-01-29T00:37:05.658Z,1.54
2019-01-29T00:39:37.842Z,1.44
2019-01-29T00:42:10.063Z,1.48
2019-01-29T00:44:42.078Z,1.51
2019-01-29T00:47:14.871Z,1.56
2019-01-29T00:49:46.999Z,1.60
2019-01-29T00:52:18.994Z,1.63
2019-01-29T00:54:51.111Z,1.59
2019-01-29T00:57:23.125Z,1.58
2019-01-29T00:59:55.323Z,1.66
2019-01-29T01:02:27.337Z,1.71
2019-01-29T01:04:59.496Z,1.76
2019-01-29T01:07:31.575Z,1.84
2019-01-29T01:10:03.862Z,1.88
2019-01-29T01:12:35.949Z,1.90
2019-01-29T01:15:09.110Z,1.87
2019-01-29T01:17:41.105Z,1.88
2019-01-29T01:20:14.921Z,1.89
2019-01-29T01:22:51.123Z,1.90
2019-01-29T01:25:20.766Z,1.91
2019-01-29T01:27:52.912Z,1.92
2019-01-29T01:30:28.585Z,1.95
2019-01-29T01:33:00.751Z,1.96
2019-01-29T01:35:33.579Z,1.94
2019-01-29T01:38:05.606Z,1.97
2019-01-29T01:40:37.617Z,1.92
2019-01-29T01:43:09.655Z,1.91
2019-01-29T01:45:41.634Z,1.98
2019-01-29T01:48:13.645Z,2.03
2019-01-29T01:50:45.702Z,2.10
2019-01-29T01:53:17.655Z,2.18
2019-01-29T01:55:49.643Z,2.16
2019-01-29T01:58:21.630Z,2.16
2019-01-29T02:00:53.685Z,2.13
2019-01-29T02:03:25.785Z,2.08
2019-01-29T02:05:57.809Z,2.07
2019-01-29T02:08:29.840Z,2.09
2019-01-29T02:11:01.927Z,2.10
2019-01-29T02:13:33.955Z,2.14
2019-01-29T02:16:07.843Z,2.12
2019-01-29T02:18:39.824Z,2.12
2019-01-29T02:21:11.840Z,2.11
2019-01-29T02:23:43.906Z,2.14
2019-01-29T02:26:15.896Z,2.11
2019-01-29T02:28:47.910Z,2.09
2019-01-29T02:31:20.053Z,2.00
2019-01-29T02:33:52.203Z,1.94
2019-01-29T02:36:24.207Z,1.91
2019-01-29T02:38:56.306Z,1.84
2019-01-29T02:41:28.334Z,1.76
2019-01-29T02:44:00.426Z,1.75
2019-01-29T02:46:32.650Z,1.70
2019-01-29T02:49:04.713Z,1.67
2019-01-29T02:51:36.733Z,1.64
2019-01-29T02:54:09.021Z,1.60
2019-01-29T02:56:41.087Z,1.54
2019-01-29T02:59:13.916Z,1.51
2019-01-29T03:01:45.964Z,1.49
2019-01-29T03:04:18.109Z,1.47
2019-01-29T03:06:50.214Z,1.46
2019-01-29T03:09:22.290Z,1.45
2019-01-29T03:11:54.577Z,1.46
2019-01-29T03:14:26.706Z,1.43
2019-01-29T03:16:58.767Z,1.44
2019-01-29T03:19:30.795Z,1.45
2019-01-29T03:22:02.837Z,1.45
2019-01-29T03:24:36.042Z,1.44
2019-01-29T03:27:08.206Z,1.42
2019-01-29T03:29:40.197Z,1.41
2019-01-29T03:32:12.273Z,1.39
2019-01-29T03:34:44.317Z,1.38
2019-01-29T03:37:17.786Z,1.38
2019-01-29T03:39:50.761Z,1.40
2019-01-29T03:42:22.834Z,1.42
2019-01-29T03:44:54.865Z,1.47
2019-01-29T03:47:26.886Z,1.42
2019-01-29T03:49:59.055Z,1.42
2019-01-29T03:52:32.846Z,1.43
2019-01-29T03:55:08.606Z,1.43
2019-01-29T03:57:45.367Z,1.41
2019-01-29T04:00:31.434Z,1.42
2019-01-29T04:03:05.804Z,1.44
2019-01-29T04:05:45.024Z,1.44
2019-01-29T04:08:22.168Z,1.45
2019-01-29T04:11:09.221Z,1.45
2019-01-29T04:13:55.673Z,1.44
2019-01-29T04:16:42.269Z,1.43
2019-01-29T04:19:20.132Z,1.44
2019-01-29T04:21:57.587Z,1.44
2019-01-29T04:24:38.602Z,1.44
2019-01-29T04:27:12.708Z,1.46
2019-01-29T04:29:48.501Z,1.45
2019-01-29T04:32:30.664Z,1.46
2019-01-29T04:35:07.231Z,1.46
2019-01-29T04:37:39.295Z,1.50
2019-01-29T04:40:12.652Z,1.50
2019-01-29T04:42:44.650Z,1.52
2019-01-29T04:45:16.979Z,1.52
2019-01-29T04:47:49.008Z,1.49
2019-01-29T04:50:23.531Z,1.52
2019-01-29T04:52:55.554Z,1.49
2019-01-29T04:55:27.513Z,1.47
2019-01-29T04:57:59.495Z,1.50
2019-01-29T05:00:31.430Z,1.52
2019-01-29T05:03:03.504Z,1.52
2019-01-29T05:05:35.479Z,1.50
2019-01-29T05:08:07.473Z,1.50
2019-01-29T05:10:39.560Z,1.52
2019-01-29T05:13:11.603Z,1.52
2019-01-29T05:15:45.902Z,1.54
2019-01-29T05:18:17.985Z,1.56
2019-01-29T05:20:49.975Z,1.56
2019-01-29T05:23:22.003Z,1.59
2019-01-29T05:25:55.882Z,1.57
2019-01-29T05:28:27.864Z,1.56
2019-01-29T05:31:00.731Z,1.55
2019-01-29T05:33:35.822Z,1.56
2019-01-29T05:36:07.931Z,1.56
2019-01-29T05:38:40.364Z,1.55
2019-01-29T05:41:12.389Z,1.88
2019-01-29T05:43:44.343Z,2.12
2019-01-29T05:46:25.239Z,2.17
2019-01-29T05:48:59.970Z,2.17
2019-01-29T05:51:31.947Z,2.18
2019-01-29T05:54:03.908Z,2.18
2019-01-29T05:56:35.870Z,2.22
2019-01-29T05:59:07.903Z,2.18
2019-01-29T06:01:41.071Z,2.21
2019-01-29T06:04:13.157Z,2.22
2019-01-29T06:06:45.189Z,2.23
2019-01-29T06:09:17.238Z,2.28
2019-01-29T06:11:49.259Z,2.21
2019-01-29T06:14:21.276Z,2.24
2019-01-29T06:16:53.261Z,2.24
2019-01-29T06:19:25.430Z,2.29
2019-01-29T06:21:57.530Z,2.25
2019-01-29T06:24:29.639Z,2.21
2019-01-29T06:27:06.209Z,2.13
2019-01-29T06:29:39.507Z,2.00
2019-01-29T06:32:16.403Z,1.92
2019-01-29T06:34:48.576Z,1.84
2019-01-29T06:37:23.530Z,1.82
2019-01-29T06:39:57.304Z,1.76
2019-01-29T06:42:29.544Z,1.78
2019-01-29T06:45:02.190Z,1.77
2019-01-29T06:47:35.890Z,1.79
2019-01-29T06:50:10.801Z,1.78
2019-01-29T06:52:42.961Z,1.80
2019-01-29T06:55:17.048Z,1.79
2019-01-29T06:57:55.135Z,1.81
2019-01-29T07:00:26.501Z,1.84
2019-01-29T07:03:03.445Z,1.86
2019-01-29T07:05:35.859Z,1.89
2019-01-29T07:08:08.184Z,1.92
2019-01-29T07:10:44.281Z,1.91
2019-01-29T07:13:18.177Z,1.94
2019-01-29T07:16:12.534Z,1.98
2019-01-29T07:19:01.916Z,2.01
2019-01-29T07:21:33.959Z,1.99
2019-01-29T07:24:06.118Z,2.00
2019-01-29T07:26:38.130Z,1.98
2019-01-29T07:29:11.892Z,1.98
2019-01-29T07:31:44.074Z,1.98
2019-01-29T07:34:16.232Z,1.95
2019-01-29T07:36:48.389Z,1.96
2019-01-29T07:39:20.487Z,1.95
2019-01-29T07:41:54.938Z,1.95
2019-01-29T07:44:27.144Z,1.94
2019-01-29T07:46:59.401Z,1.94
2019-01-29T07:49:33.118Z,1.92
2019-01-29T07:52:05.542Z,1.94
2019-01-29T07:54:38.784Z,1.94
2019-01-29T07:57:10.824Z,1.95
2019-01-29T07:59:43.520Z,1.93
2019-01-29T08:02:15.596Z,1.93
2019-01-29T08:04:49.874Z,1.90
2019-01-29T08:07:22.084Z,1.89
2019-01-29T08:09:54.156Z,1.88
2019-01-29T08:12:26.199Z,1.92
2019-01-29T08:14:58.274Z,1.90
2019-01-29T08:17:30.372Z,1.91
2019-01-29T08:20:04.418Z,1.90
2019-01-29T08:22:55.869Z,1.89
2019-01-29T08:25:29.702Z,1.89
2019-01-29T08:28:01.845Z,1.91
2019-01-29T08:31:01.013Z,1.95
2019-01-29T08:33:36.098Z,1.98
2019-01-29T08:36:09.992Z,1.98
2019-01-29T08:38:42.325Z,1.97
2019-01-29T08:41:14.656Z,1.97
2019-01-29T08:43:50.539Z,1.98
2019-01-29T08:46:32.122Z,1.98
2019-01-29T08:49:04.796Z,1.91
2019-01-29T08:51:37.058Z,1.93
2019-01-29T08:54:09.456Z,1.91
2019-01-29T08:56:42.739Z,1.92
2019-01-29T08:59:15.033Z,1.99
2019-01-29T09:01:47.242Z,2.00
2019-01-29T09:04:19.969Z,2.01
2019-01-29T09:06:52.154Z,2.00
2019-01-29T09:09:24.334Z,1.99
2019-01-29T09:11:56.433Z,1.96
2019-01-29T09:14:32.060Z,1.89
2019-01-29T09:17:04.235Z,1.83
2019-01-29T09:19:37.854Z,1.83
2019-01-29T09:22:10.512Z,1.76
2019-01-29T09:24:43.682Z,1.75
2019-01-29T09:27:15.862Z,1.71
2019-01-29T09:29:49.669Z,1.72
2019-01-29T09:32:22.017Z,1.66
2019-01-29T09:34:54.040Z,1.69
2019-01-29T09:37:26.339Z,1.64
2019-01-29T09:39:58.761Z,1.67
2019-01-29T09:42:31.110Z,1.65
2019-01-29T09:45:03.385Z,1.65
2019-01-29T09:47:36.156Z,1.66
2019-01-29T09:50:09.179Z,1.60
2019-01-29T09:52:41.358Z,1.51
2019-01-29T09:55:15.458Z,1.42
2019-01-29T09:57:47.449Z,1.37
2019-01-29T10:00:28.294Z,1.37
2019-01-29T10:03:00.372Z,1.42
2019-01-29T10:05:32.414Z,1.45
2019-01-29T10:08:04.697Z,1.50
2019-01-29T10:10:36.809Z,1.59
2019-01-29T10:13:08.879Z,1.58
2019-01-29T10:15:40.971Z,1.62
2019-01-29T10:18:13.467Z,1.60
2019-01-29T10:20:45.596Z,1.57
2019-01-29T10:23:17.775Z,1.56
2019-01-29T10:25:50.174Z,1.58
2019-01-29T10:28:24.170Z,1.64
2019-01-29T10:30:56.257Z,1.59
2019-01-29T10:33:28.279Z,1.56
2019-01-29T10:36:00.443Z,1.61
2019-01-29T10:38:32.440Z,1.61
2019-01-29T10:41:04.601Z,1.58
2019-01-29T10:43:38.082Z,1.60
2019-01-29T10:46:10.080Z,1.49
2019-01-29T10:48:42.109Z,1.53
2019-01-29T10:51:14.195Z,1.46
2019-01-29T10:53:46.197Z,1.57
2019-01-29T10:56:18.250Z,1.76
2019-01-29T10:58:50.267Z,1.80
2019-01-29T11:01:22.387Z,1.92
2019-01-29T11:03:54.540Z,2.43
2019-01-29T11:06:26.552Z,2.49
2019-01-29T11:08:58.970Z,2.61
2019-01-29T11:11:30.948Z,2.63
2019-01-29T11:14:03.016Z,2.51
2019-01-29T11:16:35.053Z,2.29
2019-01-29T11:19:07.120Z,2.17
2019-01-29T11:21:39.191Z,2.10
2019-01-29T11:24:11.259Z,2.10
2019-01-29T11:26:43.287Z,2.10
2019-01-29T11:29:15.526Z,2.11
2019-01-29T11:31:47.819Z,2.10
2019-01-29T11:34:24.991Z,2.10
2019-01-29T11:37:04.875Z,1.94
2019-01-29T11:39:45.273Z,1.98
2019-01-29T11:42:30.550Z,1.93
2019-01-29T11:45:02.778Z,1.89
2019-01-29T11:47:37.727Z,1.89
2019-01-29T11:50:10.779Z,1.83
2019-01-29T11:52:42.898Z,1.78
2019-01-29T11:55:14.993Z,1.73
2019-01-29T11:57:47.241Z,1.65
2019-01-29T12:00:28.053Z,1.59
2019-01-29T12:03:01.638Z,1.55
2019-01-29T12:05:36.675Z,1.52
2019-01-29T12:08:10.209Z,1.51
2019-01-29T12:10:42.369Z,1.53
2019-01-29T12:13:14.819Z,1.57
2019-01-29T12:15:47.090Z,1.58
2019-01-29T12:18:19.903Z,1.58
2019-01-29T12:20:58.005Z,1.59
2019-01-29T12:23:31.638Z,1.66
2019-01-29T12:26:03.867Z,1.74
2019-01-29T12:28:36.083Z,1.69
2019-01-29T12:31:08.293Z,1.75
2019-01-29T12:33:40.308Z,1.75
2019-01-29T12:36:12.371Z,1.82
2019-01-29T12:38:45.386Z,2.10
2019-01-29T12:41:19.807Z,2.10
2019-01-29T12:43:51.808Z,2.09
2019-01-29T12:46:24.308Z,2.41
2019-01-29T12:48:56.417Z,2.52
2019-01-29T12:51:41.678Z,2.64
2019-01-29T12:54:13.745Z,2.51
2019-01-29T12:56:45.876Z,2.34
2019-01-29T12:59:25.875Z,2.34
2019-01-29T13:02:19.969Z,2.26
2019-01-29T13:05:12.319Z,2.09
2019-01-29T13:08:02.504Z,1.99
2019-01-29T13:11:10.124Z,2.02
2019-01-29T13:13:49.787Z,2.09
2019-01-29T13:16:24.982Z,2.52
2019-01-29T13:19:09.315Z,2.81
2019-01-29T13:21:43.683Z,2.58
2019-01-29T13:27:41.504Z,2.34
2019-01-29T13:30:31.498Z,1.99
2019-01-29T13:33:26.808Z,1.82
2019-01-29T13:36:59.605Z,1.71
2019-01-29T13:39:31.335Z,1.52
2019-01-29T13:42:03.636Z,1.52
2019-01-29T13:44:38.625Z,1.53
2019-01-29T13:47:11.914Z,1.54
2019-01-29T13:49:44.263Z,1.58
2019-01-29T13:52:18.390Z,1.64
2019-01-29T13:54:50.473Z,1.64
2019-01-29T13:57:27.689Z,1.71
2019-01-29T14:00:01.707Z,1.74
2019-01-29T14:02:34.227Z,1.58
2019-01-29T14:05:09.794Z,1.56
2019-01-29T14:07:41.929Z,1.58
2019-01-29T14:10:14.330Z,1.59
2019-01-29T14:14:14.970Z,1.73
2019-01-29T14:18:05.126Z,1.68
2019-01-29T14:20:50.819Z,1.64
2019-01-29T14:32:15.644Z,1.59
2019-01-29T14:39:26.406Z,1.49
2019-01-29T14:42:32.411Z,1.45
2019-01-29T15:01:32.958Z,1.30
2019-01-29T15:15:53.976Z,1.30
2019-01-29T15:22:34.248Z,1.30
2019-01-29T15:25:35.214Z,1.33
2019-01-29T15:28:27.719Z,1.32
2019-01-29T15:31:14.289Z,1.26
2019-01-29T15:33:54.242Z,1.17
2019-01-29T15:36:34.519Z,1.16
2019-01-29T15:39:11.268Z,1.18
2019-01-29T15:42:16.878Z,1.14
2019-01-29T15:45:09.763Z,1.09
2019-01-29T15:47:43.716Z,1.06
2019-01-29T15:50:21.124Z,1.07
2019-01-29T15:53:01.873Z,1.08
2019-01-29T15:55:54.941Z,1.09
2019-01-29T15:58:28.841Z,1.13
2019-01-29T16:01:02.868Z,1.16
2019-01-29T16:04:00.304Z,1.20
2019-01-29T16:06:32.328Z,1.30
2019-01-29T16:09:08.969Z,1.34
2019-01-29T16:11:42.260Z,1.34
2019-01-29T16:18:35.378Z,1.35
2019-01-29T16:21:43.305Z,1.35
2019-01-29T16:25:07.194Z,1.38
2019-01-29T16:31:36.394Z,1.41
2019-01-29T16:37:54.428Z,1.30
2019-01-29T16:40:24.709Z,1.27
2019-01-29T16:50:35.285Z,1.35
2019-01-29T16:53:17.155Z,1.33
2019-01-29T16:56:02.839Z,1.32
2019-01-29T16:59:31.664Z,1.32
2019-01-29T17:02:06.673Z,1.31
2019-01-29T17:13:31.447Z,1.28
2019-01-29T17:15:49.921Z,1.21
2019-01-29T17:18:57.727Z,1.13
2019-01-29T17:28:23.347Z,1.14
2019-01-29T17:31:03.407Z,1.12
2019-01-29T18:00:55.303Z,1.09
2019-01-29T18:20:16.569Z,1.06
2019-01-29T18:31:19.029Z,1.05
2019-01-29T19:29:10.847Z,1.18
2019-01-29T19:30:58.291Z,1.08
2019-01-29T19:34:14.175Z,1.08
2019-01-29T19:37:50.186Z,1.11
2019-01-29T21:05:30.606Z,0.97
2019-01-29T21:08:12.896Z,0.99
2019-01-29T21:11:10.919Z,0.88
2019-01-29T21:13:53.331Z,0.75
2019-01-29T21:16:28.331Z,0.70
2019-01-29T21:19:02.932Z,0.65
2019-01-29T21:21:56.695Z,0.57
2019-01-29T21:24:37.891Z,0.61
2019-01-29T21:28:44.279Z,0.49
2019-01-29T21:31:08.755Z,0.44
2019-01-29T21:33:57.694Z,0.50
2019-01-29T21:36:55.169Z,0.63
2019-01-29T21:47:49.653Z,0.62
2019-01-29T21:50:26.642Z,0.78
2019-01-29T21:52:59.172Z,0.97
2019-01-29T21:55:40.889Z,1.04
2019-01-29T21:58:17.921Z,1.09
2019-01-29T22:00:52.206Z,1.09
2019-01-29T22:03:24.402Z,1.12
2019-01-29T22:05:56.466Z,1.17
2019-01-29T22:08:28.655Z,1.15
2019-01-29T22:11:00.826Z,1.15
2019-01-29T22:13:33.150Z,1.18
2019-01-29T22:16:05.500Z,1.18
2019-01-29T22:19:22.608Z,1.25
2019-01-29T22:21:55.150Z,1.24
2019-01-29T22:24:27.562Z,1.14
2019-01-29T22:26:59.903Z,1.11
2019-01-29T22:29:32.215Z,1.11
2019-01-29T22:32:06.370Z,1.10
2019-01-29T22:34:38.455Z,1.08
2019-01-29T22:37:11.629Z,1.14
2019-01-29T22:39:43.861Z,1.12
2019-01-29T22:42:17.696Z,0.97
2019-01-29T22:44:49.789Z,0.83
2019-01-29T22:47:21.839Z,0.87
2019-01-29T22:49:53.860Z,0.93
2019-01-29T22:52:25.970Z,0.98
2019-01-29T22:54:58.307Z,1.05
2019-01-29T22:57:30.476Z,1.09
2019-01-29T23:00:02.923Z,1.04
2019-01-29T23:02:36.572Z,0.97
2019-01-29T23:05:10.078Z,0.96
2019-01-29T23:07:42.280Z,1.03
2019-01-29T23:10:16.784Z,1.03
2019-01-29T23:12:48.896Z,0.91
2019-01-29T23:15:20.962Z,0.89
2019-01-29T23:17:53.243Z,0.88
2019-01-29T23:20:25.296Z,0.71
2019-01-29T23:22:57.404Z,0.74
2019-01-29T23:25:29.437Z,0.82
2019-01-29T23:28:01.519Z,0.93
2019-01-29T23:30:33.625Z,1.05
2019-01-29T23:33:05.713Z,1.11
2019-01-29T23:35:38.080Z,1.11
2019-01-29T23:38:10.116Z,1.12
2019-01-29T23:40:42.220Z,1.08
2019-01-29T23:43:14.310Z,1.03
2019-01-29T23:45:46.338Z,0.98
2019-01-29T23:48:18.370Z,0.89
2019-01-29T23:50:50.428Z,0.90
2019-01-29T23:53:22.547Z,0.91
2019-01-29T23:56:49.157Z,0.86
